createdAt,value
2022-09-20T00:03:30.148Z,1022.2
2022-09-20T00:32:26.480Z,1022.16
2022-09-20T01:01:23.196Z,1022.1
2022-09-20T01:30:03.938Z,1022.08
2022-09-20T01:59:24.431Z,1022.11
2022-09-20T02:27:29.500Z,1021.99
2022-09-20T02:56:18.703Z,1021.93
2022-09-20T03:25:01.852Z,1022.1
2022-09-20T03:53:54.449Z,1022.4
2022-09-20T04:22:47.568Z,1022.51
2022-09-20T04:51:43.219Z,1022.6
2022-09-20T05:20:24.200Z,1022.81
2022-09-20T05:49:14.654Z,1023.05
2022-09-20T06:17:57.070Z,1022.92
2022-09-20T06:46:45.736Z,1022.92
2022-09-20T07:15:26.409Z,1022.96
2022-09-20T07:44:16.438Z,1023.08
2022-09-20T08:41:19.162Z,1023.45
2022-09-20T09:10:06.743Z,1023.52
2022-09-20T09:38:56.716Z,1023.35
2022-09-20T10:07:39.456Z,1023.12
2022-09-20T10:36:22.122Z,1022.9
2022-09-20T11:05:14.652Z,1022.8
2022-09-20T11:34:02.351Z,1023.06
2022-09-20T12:02:52.059Z,1023.03
2022-09-20T12:31:33.980Z,1022.68
2022-09-20T13:00:17.281Z,1022.55
2022-09-20T13:28:47.471Z,1022.55
2022-09-20T13:57:25.013Z,1022.49
2022-09-20T14:25:53.027Z,1022.43
2022-09-20T14:54:33.164Z,1022.44
2022-09-20T15:23:09.806Z,1022.42
2022-09-20T15:51:42.842Z,1022.48
2022-09-20T16:20:08.171Z,1022.55
2022-09-20T16:48:44.005Z,1022.8
2022-09-20T17:17:17.818Z,1022.89
2022-09-20T17:45:46.613Z,1023.05
2022-09-20T18:14:20.285Z,1023.41
2022-09-20T18:42:41.643Z,1023.49
2022-09-20T19:11:08.028Z,1023.61
2022-09-20T19:39:49.399Z,1023.85
2022-09-20T20:08:39.357Z,1024.02
2022-09-20T20:37:34.940Z,1024.08
2022-09-20T21:06:22.646Z,1024.2
2022-09-20T21:35:05.815Z,1024.2
2022-09-20T22:03:48.193Z,1024.24
2022-09-20T22:32:39.419Z,1024.19
2022-09-20T23:01:27.513Z,1024.12
2022-09-20T23:30:24.770Z,1024.12
2022-09-20T23:59:02.642Z,1024.09
